Abernant, Alabama
Current Conditions -  °F | °C
As of 10:53 AM on Sunday 21 Dec 2014 (Local Time) from KTCL Reporting Station
Haze Haze  
Wind Chill: 47°   Ceiling: 700
Heat Index: 49°   Visibility: 4mi
Dew Point: 45°   Wind: 6mph
Humidity: 86%   Direction: 50°NE
Pressure: 30.16"   Gusts: NA
Location:  33.29°N, 87.2°W
Report Text: KTCL 211653Z 05005KT 4SM BR OVC007 09/07 A3016 RMK AO2 SLP214 T00940072
Loading
Personal Weather Stations






























Interactive Weather Map New forecast layout! Learn more

10-Day Weather Forecast

Advertisements
Track Severe Weather on mobile